Time;durP1;ratioP1;P1;durP2;ratioP2;P2;SDS_P1;SDS_P2;PMS_P1;PMS_P2;Temp;Humidity;BMP_temperature;BMP_pressure;BME280_temperature;BME280_humidity;BME280_pressure;Samples;Min_cycle;Max_cycle;Signal;HPM_P1;HPM_P2
2021/12/29 00:00:05;;;;;;;;;;;20.90;44.00;;;;;;688274;28;1293;-85
2021/12/29 00:00:28;;;;;;;;;;;21.00;43.90;;;;;;688089;28;1229;-86
2021/12/29 00:00:48;;;;;;;;;;;21.00;44.00;;;;;;688689;28;717;-89
2021/12/29 00:01:09;;;;;;;;;;;20.90;43.90;;;;;;688904;28;1256;-91
2021/12/29 00:01:29;;;;;;;;;;;21.00;44.10;;;;;;691079;28;1055;-91
2021/12/29 00:01:50;;;;;;;;;;;21.00;43.90;;;;;;690539;28;1326;-89
2021/12/29 00:02:10;;;;;;;;;;;21.00;44.00;;;;;;688572;28;937;-85
2021/12/29 00:02:31;;;;;;;;;;;20.90;44.00;;;;;;685607;28;1328;-90
2021/12/29 00:02:52;;;;;;;;;;;21.00;44.00;;;;;;685860;28;966;-90
2021/12/29 00:03:12;;;;;;;;;;;20.90;43.80;;;;;;685901;28;895;-90
2021/12/29 00:03:33;;;;;;;;;;;21.00;44.10;;;;;;686082;28;915;-91
2021/12/29 00:03:54;;;;;;;;;;;20.90;43.90;;;;;;688521;28;853;-91
2021/12/29 00:04:15;;;;;;;;;;;21.00;44.00;;;;;;686121;28;1279;-90
2021/12/29 00:04:36;;;;;;;;;;;21.00;44.10;;;;;;688285;28;1110;-90
2021/12/29 00:04:57;;;;;;;;;;;21.00;44.00;;;;;;685727;28;1235;-90
2021/12/29 00:05:17;;;;;;;;;;;20.90;44.00;;;;;;685827;28;1064;-90
2021/12/29 00:05:38;;;;;;;;;;;20.90;43.80;;;;;;685700;28;1212;-88
2021/12/29 00:05:58;;;;;;;;;;;20.90;44.20;;;;;;686149;28;815;-90
2021/12/29 00:06:19;;;;;;;;;;;21.00;43.80;;;;;;688170;28;894;-91
2021/12/29 00:06:40;;;;;;;;;;;21.00;44.30;;;;;;685938;28;855;-88
2021/12/29 00:07:00;;;;;;;;;;;21.00;43.90;;;;;;688358;28;858;-89
2021/12/29 00:07:21;;;;;;;;;;;21.00;43.90;;;;;;688504;28;862;-87
2021/12/29 00:07:41;;;;;;;;;;;21.00;44.10;;;;;;688820;28;818;-91
2021/12/29 00:08:02;;;;;;;;;;;21.00;44.10;;;;;;690999;28;1176;-89
2021/12/29 00:08:23;;;;;;;;;;;21.00;43.90;;;;;;691057;28;1044;-90
2021/12/29 00:08:43;;;;;;;;;;;21.00;43.90;;;;;;691671;28;1224;-91
2021/12/29 00:09:04;;;;;;;;;;;20.90;43.80;;;;;;691607;28;858;-90
2021/12/29 00:09:25;;;;;;;;;;;20.90;43.90;;;;;;691708;28;1036;-91
2021/12/29 00:09:46;;;;;;;;;;;21.00;43.90;;;;;;691358;28;850;-89
2021/12/29 00:10:06;;;;;;;;;;;20.90;43.80;;;;;;686169;28;1117;-90
2021/12/29 00:10:27;;;;;;;;;;;20.90;43.80;;;;;;686546;28;910;-90
2021/12/29 00:10:54;;;;;;;;;;;20.90;43.90;;;;;;689229;28;775;-91
2021/12/29 00:11:15;;;;;;;;;;;20.90;44.00;;;;;;689043;28;905;-89
2021/12/29 00:11:38;;;;;;;;;;;20.90;43.90;;;;;;689083;28;783;-87
2021/12/29 00:11:59;;;;;;;;;;;20.90;44.00;;;;;;690427;28;1557;-90
2021/12/29 00:12:25;;;;;;;;;;;20.90;45.00;;;;;;691783;28;816;-90
2021/12/29 00:12:52;;;;;;;;;;;20.90;44.00;;;;;;691902;28;827;-87
2021/12/29 00:13:13;;;;;;;;;;;20.90;43.80;;;;;;691701;28;831;-91
2021/12/29 00:13:33;;;;;;;;;;;20.90;43.80;;;;;;691625;28;941;-91
2021/12/29 00:13:54;;;;;;;;;;;20.90;43.80;;;;;;689720;28;866;-90
2021/12/29 00:14:14;;;;;;;;;;;20.90;43.70;;;;;;689009;28;894;-91
2021/12/29 00:14:35;;;;;;;;;;;20.90;43.90;;;;;;689056;28;780;-88
2021/12/29 00:14:56;;;;;;;;;;;20.90;43.90;;;;;;686218;28;1344;-91
2021/12/29 00:15:17;;;;;;;;;;;20.90;43.90;;;;;;686305;28;946;-91
2021/12/29 00:15:38;;;;;;;;;;;20.90;43.90;;;;;;686790;28;911;-91
2021/12/29 00:15:59;;;;;;;;;;;20.90;43.80;;;;;;688880;28;871;-86
2021/12/29 00:16:19;;;;;;;;;;;20.90;43.80;;;;;;689037;28;804;-88
2021/12/29 00:16:40;;;;;;;;;;;20.90;44.00;;;;;;689065;28;930;-85
2021/12/29 00:17:01;;;;;;;;;;;20.90;43.80;;;;;;689129;28;961;-86
2021/12/29 00:17:21;;;;;;;;;;;20.90;43.90;;;;;;689091;28;984;-84
2021/12/29 00:17:44;;;;;;;;;;;20.90;43.80;;;;;;691644;28;1301;-84
2021/12/29 00:18:04;;;;;;;;;;;20.90;43.80;;;;;;691659;28;1403;-86
2021/12/29 00:18:26;;;;;;;;;;;20.90;43.90;;;;;;691590;28;929;-84
2021/12/29 00:18:46;;;;;;;;;;;20.90;43.80;;;;;;691642;28;1179;-87
2021/12/29 00:19:07;;;;;;;;;;;20.90;43.80;;;;;;691634;28;978;-86
2021/12/29 00:19:27;;;;;;;;;;;20.90;43.80;;;;;;690889;28;1902;-84
2021/12/29 00:19:48;;;;;;;;;;;20.90;43.90;;;;;;689010;28;1128;-84
2021/12/29 00:20:09;;;;;;;;;;;20.90;43.80;;;;;;686113;28;1319;-83
2021/12/29 00:20:31;;;;;;;;;;;20.90;43.80;;;;;;686232;28;1106;-85
2021/12/29 00:20:52;;;;;;;;;;;20.90;43.90;;;;;;686352;28;843;-82
2021/12/29 00:21:14;;;;;;;;;;;20.90;43.80;;;;;;686412;28;792;-83
2021/12/29 00:21:35;;;;;;;;;;;20.90;43.80;;;;;;686878;28;889;-87
2021/12/29 00:21:56;;;;;;;;;;;20.90;43.80;;;;;;687004;28;1163;-85
2021/12/29 00:22:17;;;;;;;;;;;20.90;43.90;;;;;;686178;28;1136;-85
2021/12/29 00:22:38;;;;;;;;;;;20.90;44.00;;;;;;686378;28;1433;-87
2021/12/29 00:22:59;;;;;;;;;;;20.90;43.90;;;;;;686340;28;787;-91
2021/12/29 00:23:20;;;;;;;;;;;20.90;43.90;;;;;;686320;28;1264;-90
2021/12/29 00:23:40;;;;;;;;;;;20.90;43.80;;;;;;686326;28;867;-88
2021/12/29 00:24:02;;;;;;;;;;;20.90;43.90;;;;;;686753;28;902;-85
2021/12/29 00:24:22;;;;;;;;;;;20.90;43.80;;;;;;688871;28;1315;-87
2021/12/29 00:24:43;;;;;;;;;;;20.90;44.10;;;;;;689245;28;1300;-85
2021/12/29 00:25:04;;;;;;;;;;;20.90;43.80;;;;;;689446;28;878;-91
2021/12/29 00:25:25;;;;;;;;;;;20.90;43.90;;;;;;691933;28;1160;-90
2021/12/29 00:25:46;;;;;;;;;;;20.90;44.00;;;;;;691566;28;1478;-90
2021/12/29 00:26:06;;;;;;;;;;;20.90;44.00;;;;;;691735;28;934;-87
2021/12/29 00:26:27;;;;;;;;;;;20.90;44.00;;;;;;691170;28;1263;-89
2021/12/29 00:26:48;;;;;;;;;;;20.90;43.80;;;;;;689065;28;776;-86
2021/12/29 00:27:10;;;;;;;;;;;20.90;43.90;;;;;;689054;28;862;-88
2021/12/29 00:27:30;;;;;;;;;;;20.90;43.80;;;;;;689011;28;858;-84
2021/12/29 00:27:54;;;;;;;;;;;20.90;43.90;;;;;;686394;28;1319;-87
2021/12/29 00:28:16;;;;;;;;;;;20.90;43.90;;;;;;684642;28;863;-89
2021/12/29 00:28:37;;;;;;;;;;;20.90;43.80;;;;;;686201;28;835;-85
2021/12/29 00:29:01;;;;;;;;;;;20.90;43.80;;;;;;686339;28;799;-85
2021/12/29 00:29:21;;;;;;;;;;;20.90;43.80;;;;;;686338;28;819;-87
2021/12/29 00:29:42;;;;;;;;;;;20.90;43.80;;;;;;687705;28;835;-89
2021/12/29 00:30:03;;;;;;;;;;;20.90;43.90;;;;;;687161;28;1177;-88
2021/12/29 00:30:24;;;;;;;;;;;20.90;43.90;;;;;;688839;28;1350;-90
2021/12/29 00:30:45;;;;;;;;;;;20.90;43.80;;;;;;689062;28;780;-88
2021/12/29 00:31:05;;;;;;;;;;;20.90;43.80;;;;;;689015;28;922;-85
2021/12/29 00:31:30;;;;;;;;;;;20.90;43.80;;;;;;689118;28;764;-87
2021/12/29 00:31:51;;;;;;;;;;;20.90;44.00;;;;;;689882;28;870;-87
2021/12/29 00:32:11;;;;;;;;;;;20.90;43.70;;;;;;690913;28;767;-87
2021/12/29 00:32:32;;;;;;;;;;;20.90;43.90;;;;;;689108;28;873;-89
2021/12/29 00:32:52;;;;;;;;;;;20.90;43.70;;;;;;689154;28;945;-88
2021/12/29 00:33:13;;;;;;;;;;;20.90;43.80;;;;;;691553;28;1219;-87
2021/12/29 00:33:33;;;;;;;;;;;20.90;43.90;;;;;;691494;28;963;-89
2021/12/29 00:33:54;;;;;;;;;;;20.90;43.90;;;;;;691621;28;862;-85
2021/12/29 00:34:15;;;;;;;;;;;20.90;44.00;;;;;;691691;28;1450;-87
2021/12/29 00:34:35;;;;;;;;;;;20.90;43.80;;;;;;691476;28;1338;-85
2021/12/29 00:34:56;;;;;;;;;;;20.90;43.70;;;;;;691408;28;767;-83
2021/12/29 00:35:16;;;;;;;;;;;20.90;43.80;;;;;;688982;28;811;-86
2021/12/29 00:35:38;;;;;;;;;;;20.90;43.70;;;;;;688939;28;796;-88
2021/12/29 00:35:59;;;;;;;;;;;20.90;43.80;;;;;;688811;28;1446;-85
2021/12/29 00:36:19;;;;;;;;;;;20.90;44.10;;;;;;689137;28;863;-87
2021/12/29 00:36:40;;;;;;;;;;;20.90;43.90;;;;;;689061;28;921;-87
2021/12/29 00:37:01;;;;;;;;;;;20.90;43.90;;;;;;689168;28;795;-86
2021/12/29 00:37:21;;;;;;;;;;;20.90;43.90;;;;;;689143;28;811;-90
2021/12/29 00:37:42;;;;;;;;;;;20.90;43.90;;;;;;691548;28;1189;-87
2021/12/29 00:38:03;;;;;;;;;;;20.90;43.80;;;;;;691628;28;819;-85
2021/12/29 00:38:24;;;;;;;;;;;20.90;43.80;;;;;;691429;28;1298;-87
2021/12/29 00:38:45;;;;;;;;;;;20.90;43.90;;;;;;691660;28;783;-85
2021/12/29 00:39:05;;;;;;;;;;;20.90;43.60;;;;;;691503;28;1344;-85
2021/12/29 00:39:26;;;;;;;;;;;20.90;43.90;;;;;;690964;28;1910;-85
2021/12/29 00:39:47;;;;;;;;;;;20.90;43.60;;;;;;688887;28;933;-84
2021/12/29 00:40:09;;;;;;;;;;;20.90;43.80;;;;;;688869;28;863;-84
2021/12/29 00:40:31;;;;;;;;;;;20.90;43.90;;;;;;688915;28;846;-85
2021/12/29 00:40:51;;;;;;;;;;;20.90;43.70;;;;;;689046;28;804;-87
2021/12/29 00:41:12;;;;;;;;;;;20.90;43.90;;;;;;686854;28;1217;-87
2021/12/29 00:41:33;;;;;;;;;;;20.90;43.60;;;;;;685986;28;1500;-85
2021/12/29 00:41:53;;;;;;;;;;;20.90;43.70;;;;;;686162;28;1326;-84
2021/12/29 00:42:14;;;;;;;;;;;20.90;43.60;;;;;;686282;28;875;-84
2021/12/29 00:42:35;;;;;;;;;;;20.90;43.70;;;;;;686224;28;902;-84
2021/12/29 00:42:56;;;;;;;;;;;20.90;44.00;;;;;;686535;28;1294;-84
2021/12/29 00:43:16;;;;;;;;;;;20.90;43.80;;;;;;688940;28;1228;-89
2021/12/29 00:43:37;;;;;;;;;;;20.90;43.80;;;;;;688785;28;1004;-84
2021/12/29 00:43:57;;;;;;;;;;;20.90;43.60;;;;;;686145;28;1335;-85
2021/12/29 00:44:18;;;;;;;;;;;20.90;43.50;;;;;;686295;28;839;-84
2021/12/29 00:44:38;;;;;;;;;;;20.90;43.60;;;;;;686092;28;1216;-86
2021/12/29 00:44:59;;;;;;;;;;;20.90;43.60;;;;;;686581;28;787;-88
2021/12/29 00:45:20;;;;;;;;;;;20.90;43.70;;;;;;686541;28;884;-87
2021/12/29 00:45:40;;;;;;;;;;;20.90;43.80;;;;;;686443;28;934;-86
2021/12/29 00:46:01;;;;;;;;;;;20.90;43.60;;;;;;688952;28;823;-91
2021/12/29 00:46:22;;;;;;;;;;;20.90;43.50;;;;;;686255;28;851;-91
2021/12/29 00:46:42;;;;;;;;;;;19.00;42.70;;;;;;686300;28;827;-90
2021/12/29 00:47:03;;;;;;;;;;;20.90;43.50;;;;;;686614;28;1335;-91
2021/12/29 00:47:23;;;;;;;;;;;20.90;43.50;;;;;;689171;28;831;-91
2021/12/29 00:47:44;;;;;;;;;;;20.90;43.60;;;;;;688980;28;1289;-91
2021/12/29 00:48:10;;;;;;;;;;;20.90;43.70;;;;;;688916;28;1231;-91
2021/12/29 00:48:36;;;;;;;;;;;20.90;43.50;;;;;;689050;28;808;-90
2021/12/29 00:48:57;;;;;;;;;;;20.90;43.60;;;;;;689031;28;799;-90
2021/12/29 00:49:17;;;;;;;;;;;20.90;43.60;;;;;;689174;28;784;-91
2021/12/29 00:49:38;;;;;;;;;;;20.90;43.60;;;;;;686649;28;1228;-91
2021/12/29 00:50:00;;;;;;;;;;;20.90;43.60;;;;;;687748;28;1460;-93
2021/12/29 00:50:20;;;;;;;;;;;20.90;43.60;;;;;;689004;28;866;-85
2021/12/29 00:50:41;;;;;;;;;;;20.90;43.50;;;;;;689030;28;895;-89
2021/12/29 00:51:02;;;;;;;;;;;20.90;43.60;;;;;;688899;28;854;-91
2021/12/29 00:51:23;;;;;;;;;;;20.90;44.70;;;;;;686223;28;1216;-91
2021/12/29 00:51:43;;;;;;;;;;;20.90;43.80;;;;;;686731;28;942;-91
2021/12/29 00:52:05;;;;;;;;;;;20.90;43.50;;;;;;688949;28;937;-91
2021/12/29 00:52:26;;;;;;;;;;;20.90;43.50;;;;;;689083;28;621;-91
2021/12/29 00:52:46;;;;;;;;;;;20.90;43.40;;;;;;686249;28;1396;-91
2021/12/29 00:53:07;;;;;;;;;;;20.90;43.40;;;;;;686215;28;1262;-91
2021/12/29 00:53:28;;;;;;;;;;;20.90;43.40;;;;;;688960;28;784;-91
2021/12/29 00:53:48;;;;;;;;;;;20.90;43.20;;;;;;686219;28;1303;-91
2021/12/29 00:54:09;;;;;;;;;;;20.90;43.30;;;;;;686263;28;1188;-91
2021/12/29 00:54:29;;;;;;;;;;;20.90;43.40;;;;;;686477;28;867;-91
2021/12/29 00:54:50;;;;;;;;;;;20.90;43.10;;;;;;686779;28;1260;-89
2021/12/29 00:55:11;;;;;;;;;;;20.90;43.10;;;;;;686427;28;827;-90
2021/12/29 00:55:32;;;;;;;;;;;20.90;43.10;;;;;;686654;28;843;-90
2021/12/29 00:55:53;;;;;;;;;;;20.90;43.60;;;;;;688948;28;875;-91
2021/12/29 00:56:13;;;;;;;;;;;21.00;43.20;;;;;;689395;28;855;-90
2021/12/29 00:56:34;;;;;;;;;;;20.90;43.10;;;;;;691332;28;914;-90
2021/12/29 00:56:54;;;;;;;;;;;20.90;43.00;;;;;;691536;28;1315;-91
2021/12/29 00:57:15;;;;;;;;;;;21.00;43.00;;;;;;691620;28;1489;-90
2021/12/29 00:57:36;;;;;;;;;;;21.00;43.00;;;;;;691593;28;870;-91
2021/12/29 00:57:56;;;;;;;;;;;21.00;43.10;;;;;;691453;28;1355;-92
2021/12/29 00:58:17;;;;;;;;;;;21.00;43.10;;;;;;691684;28;1442;-91
2021/12/29 00:58:37;;;;;;;;;;;21.00;43.10;;;;;;688950;28;1229;-91
2021/12/29 00:58:58;;;;;;;;;;;21.00;43.00;;;;;;686202;28;795;-91
2021/12/29 00:59:19;;;;;;;;;;;21.00;43.10;;;;;;686133;28;1911;-91
2021/12/29 00:59:39;;;;;;;;;;;21.00;42.90;;;;;;686366;28;819;-91
2021/12/29 01:00:00;;;;;;;;;;;21.00;42.80;;;;;;686234;28;930;-85
2021/12/29 01:00:22;;;;;;;;;;;21.10;42.90;;;;;;686470;28;1270;-87
2021/12/29 01:00:42;;;;;;;;;;;21.10;42.90;;;;;;686355;28;1480;-90
2021/12/29 01:01:03;;;;;;;;;;;21.00;42.80;;;;;;684205;28;1185;-84
2021/12/29 01:01:24;;;;;;;;;;;21.10;42.90;;;;;;683370;28;1149;-83
2021/12/29 01:01:49;;;;;;;;;;;21.00;42.80;;;;;;680587;29;1378;-82
2021/12/29 01:02:09;;;;;;;;;;;21.10;42.90;;;;;;680843;29;1316;-87
2021/12/29 01:02:30;;;;;;;;;;;21.00;42.80;;;;;;681826;29;792;-85
2021/12/29 01:02:51;;;;;;;;;;;21.10;42.80;;;;;;684356;28;875;-85
2021/12/29 01:03:11;;;;;;;;;;;21.10;42.80;;;;;;687156;28;800;-81
2021/12/29 01:03:33;;;;;;;;;;;21.10;42.80;;;;;;686868;28;1242;-83
2021/12/29 01:03:53;;;;;;;;;;;21.10;42.90;;;;;;688829;28;910;-82
2021/12/29 01:04:14;;;;;;;;;;;21.10;42.70;;;;;;686156;28;1266;-83
2021/12/29 01:04:35;;;;;;;;;;;21.10;42.80;;;;;;686191;28;807;-81
2021/12/29 01:04:55;;;;;;;;;;;21.10;42.70;;;;;;683496;28;1217;-83
2021/12/29 01:05:17;;;;;;;;;;;21.10;42.60;;;;;;683477;28;1409;-87
2021/12/29 01:05:38;;;;;;;;;;;21.10;42.60;;;;;;683509;29;835;-83
2021/12/29 01:05:58;;;;;;;;;;;21.10;42.60;;;;;;683901;28;804;-82
2021/12/29 01:06:19;;;;;;;;;;;21.10;42.60;;;;;;683564;29;1302;-83
2021/12/29 01:06:40;;;;;;;;;;;21.10;42.60;;;;;;683889;28;831;-82
2021/12/29 01:07:01;;;;;;;;;;;21.10;42.60;;;;;;683895;28;1264;-84
2021/12/29 01:07:22;;;;;;;;;;;21.10;42.60;;;;;;686158;28;1199;-84
2021/12/29 01:07:44;;;;;;;;;;;21.10;42.60;;;;;;684418;28;856;-88
2021/12/29 01:08:05;;;;;;;;;;;21.10;42.60;;;;;;683560;29;816;-91
2021/12/29 01:08:26;;;;;;;;;;;21.20;42.60;;;;;;683589;29;1022;-90
2021/12/29 01:08:47;;;;;;;;;;;21.10;42.60;;;;;;683404;28;1177;-84
2021/12/29 01:09:08;;;;;;;;;;;21.10;42.60;;;;;;683806;28;1258;-86
2021/12/29 01:09:29;;;;;;;;;;;21.10;42.60;;;;;;686739;28;1368;-84
2021/12/29 01:09:49;;;;;;;;;;;21.20;43.30;;;;;;688991;28;1317;-90
2021/12/29 01:10:10;;;;;;;;;;;21.20;42.70;;;;;;688943;28;1325;-89
2021/12/29 01:10:31;;;;;;;;;;;21.70;43.20;;;;;;688815;28;1307;-82
2021/12/29 01:10:51;;;;;;;;;;;21.10;42.70;;;;;;688796;28;788;-85
2021/12/29 01:11:12;;;;;;;;;;;21.20;42.80;;;;;;689515;28;1243;-85
2021/12/29 01:11:33;;;;;;;;;;;21.20;42.60;;;;;;691743;28;878;-89
2021/12/29 01:11:56;;;;;;;;;;;21.10;42.60;;;;;;691523;28;846;-84
2021/12/29 01:12:16;;;;;;;;;;;21.20;42.70;;;;;;691505;28;1607;-87
2021/12/29 01:12:39;;;;;;;;;;;21.20;42.60;;;;;;691377;28;1267;-86
2021/12/29 01:13:02;;;;;;;;;;;21.20;42.60;;;;;;690555;28;1449;-90
2021/12/29 01:13:30;;;;;;;;;;;21.20;42.60;;;;;;688995;28;863;-90
2021/12/29 01:13:51;;;;;;;;;;;21.20;42.60;;;;;;689052;28;760;-90
2021/12/29 01:14:11;;;;;;;;;;;21.80;42.80;;;;;;688909;28;1264;-90
2021/12/29 01:14:32;;;;;;;;;;;21.10;42.50;;;;;;688884;28;823;-88
2021/12/29 01:14:55;;;;;;;;;;;21.10;42.50;;;;;;688888;28;807;-89
2021/12/29 01:15:17;;;;;;;;;;;21.20;42.50;;;;;;688852;28;1313;-89
2021/12/29 01:15:58;;;;;;;;;;;21.20;42.50;;;;;;689126;28;894;-90
2021/12/29 01:16:56;;;;;;;;;;;21.20;42.50;;;;;;691692;28;849;-91
2021/12/29 01:17:16;;;;;;;;;;;21.20;42.40;;;;;;689168;28;972;-91
2021/12/29 01:17:37;;;;;;;;;;;21.20;42.40;;;;;;689063;28;886;-88
2021/12/29 01:17:59;;;;;;;;;;;21.20;42.40;;;;;;689159;28;901;-90
2021/12/29 01:18:19;;;;;;;;;;;21.20;42.40;;;;;;689062;28;822;-90
2021/12/29 01:18:40;;;;;;;;;;;21.20;42.30;;;;;;691443;28;1470;-86
2021/12/29 01:19:02;;;;;;;;;;;21.20;42.40;;;;;;691501;28;873;-88
2021/12/29 01:19:25;;;;;;;;;;;21.20;42.50;;;;;;691485;28;1902;-84
2021/12/29 01:19:47;;;;;;;;;;;21.10;42.30;;;;;;691573;28;902;-87
2021/12/29 01:20:07;;;;;;;;;;;21.10;42.30;;;;;;691227;28;1362;-86
2021/12/29 01:20:29;;;;;;;;;;;21.20;42.30;;;;;;690096;28;823;-87
2021/12/29 01:20:49;;;;;;;;;;;21.10;42.40;;;;;;688903;28;780;-87
2021/12/29 01:21:10;;;;;;;;;;;21.10;42.40;;;;;;688754;28;1097;-89
2021/12/29 01:21:31;;;;;;;;;;;21.20;42.50;;;;;;688877;28;814;-83
2021/12/29 01:21:53;;;;;;;;;;;21.20;42.70;;;;;;688771;28;1169;-88
2021/12/29 01:22:13;;;;;;;;;;;21.20;42.30;;;;;;688987;28;835;-88
2021/12/29 01:22:34;;;;;;;;;;;21.20;42.40;;;;;;688842;28;791;-86
2021/12/29 01:22:56;;;;;;;;;;;21.20;42.30;;;;;;688965;28;882;-88
2021/12/29 01:23:17;;;;;;;;;;;21.20;42.30;;;;;;686086;28;1381;-88
2021/12/29 01:23:38;;;;;;;;;;;21.10;42.30;;;;;;683519;29;1548;-87
2021/12/29 01:23:59;;;;;;;;;;;21.20;42.30;;;;;;683961;28;863;-89
2021/12/29 01:24:21;;;;;;;;;;;21.10;42.30;;;;;;686280;28;799;-90
2021/12/29 01:24:43;;;;;;;;;;;21.10;42.50;;;;;;683454;29;1308;-87
2021/12/29 01:25:03;;;;;;;;;;;21.10;42.30;;;;;;684239;28;889;-87
2021/12/29 01:25:25;;;;;;;;;;;21.10;42.30;;;;;;686671;28;1483;-83
2021/12/29 01:25:46;;;;;;;;;;;21.10;42.50;;;;;;688960;28;819;-88
2021/12/29 01:26:06;;;;;;;;;;;21.00;42.30;;;;;;688452;28;1166;-91
2021/12/29 01:26:27;;;;;;;;;;;21.00;42.40;;;;;;688924;28;890;-90
2021/12/29 01:26:48;;;;;;;;;;;21.10;42.60;;;;;;688947;28;867;-91
2021/12/29 01:27:08;;;;;;;;;;;21.00;42.50;;;;;;688932;28;783;-90
2021/12/29 01:27:29;;;;;;;;;;;21.00;42.60;;;;;;688907;28;977;-86
2021/12/29 01:27:50;;;;;;;;;;;21.00;42.60;;;;;;689211;28;1033;-82
2021/12/29 01:28:10;;;;;;;;;;;21.00;42.60;;;;;;689310;28;1431;-85
2021/12/29 01:28:31;;;;;;;;;;;21.00;43.50;;;;;;689182;28;933;-87
2021/12/29 01:28:51;;;;;;;;;;;21.00;43.00;;;;;;691703;28;1259;-82
2021/12/29 01:29:12;;;;;;;;;;;21.00;42.90;;;;;;692141;28;1040;-88
2021/12/29 01:29:33;;;;;;;;;;;21.00;42.80;;;;;;691982;28;1232;-90
2021/12/29 01:29:53;;;;;;;;;;;21.00;42.90;;;;;;692183;28;838;-85
2021/12/29 01:30:14;;;;;;;;;;;21.00;42.80;;;;;;692235;28;1237;-81
2021/12/29 01:30:35;;;;;;;;;;;21.00;42.80;;;;;;691901;28;969;-85
2021/12/29 01:30:56;;;;;;;;;;;21.00;42.90;;;;;;690422;28;1290;-81
2021/12/29 01:31:16;;;;;;;;;;;21.00;42.80;;;;;;690705;28;1387;-80
2021/12/29 01:31:37;;;;;;;;;;;21.00;42.90;;;;;;689474;28;1003;-82
2021/12/29 01:31:58;;;;;;;;;;;21.00;42.80;;;;;;689604;28;1040;-81
2021/12/29 01:32:18;;;;;;;;;;;21.00;42.90;;;;;;690432;28;981;-89
2021/12/29 01:32:39;;;;;;;;;;;21.00;42.90;;;;;;690243;28;1192;-81
2021/12/29 01:33:05;;;;;;;;;;;20.90;42.80;;;;;;692967;28;1293;-91
2021/12/29 01:33:26;;;;;;;;;;;20.90;43.00;;;;;;690611;28;1479;-81
2021/12/29 01:33:46;;;;;;;;;;;20.90;43.00;;;;;;691067;28;982;-81
2021/12/29 01:34:07;;;;;;;;;;;20.90;42.90;;;;;;690139;28;1056;-82
2021/12/29 01:34:28;;;;;;;;;;;21.00;43.00;;;;;;689378;28;902;-82
2021/12/29 01:34:48;;;;;;;;;;;20.90;42.90;;;;;;690830;28;1024;-81
2021/12/29 01:35:10;;;;;;;;;;;20.90;43.00;;;;;;691197;28;1131;-81
2021/12/29 01:35:35;;;;;;;;;;;20.90;42.90;;;;;;691333;28;1451;-85
2021/12/29 01:35:55;;;;;;;;;;;20.90;43.00;;;;;;691244;28;1147;-82
2021/12/29 01:36:16;;;;;;;;;;;20.90;43.00;;;;;;694301;28;1313;-81
2021/12/29 01:36:37;;;;;;;;;;;20.90;42.90;;;;;;693683;28;957;-81
2021/12/29 01:36:57;;;;;;;;;;;20.90;42.90;;;;;;693212;28;1297;-82
2021/12/29 01:37:18;;;;;;;;;;;20.90;42.90;;;;;;691578;28;1175;-80
2021/12/29 01:37:39;;;;;;;;;;;20.90;43.00;;;;;;691408;28;819;-82
2021/12/29 01:38:00;;;;;;;;;;;20.90;43.00;;;;;;689300;28;1017;-81
2021/12/29 01:38:21;;;;;;;;;;;20.90;43.10;;;;;;687244;28;863;-83
2021/12/29 01:38:41;;;;;;;;;;;20.90;42.90;;;;;;689217;28;816;-82
2021/12/29 01:39:12;;;;;;;;;;;20.90;43.10;;;;;;690306;28;1107;-80
2021/12/29 01:39:33;;;;;;;;;;;20.90;43.00;;;;;;691520;28;1883;-82
2021/12/29 01:39:53;;;;;;;;;;;20.90;43.20;;;;;;691760;28;949;-82
2021/12/29 01:40:16;;;;;;;;;;;20.90;43.30;;;;;;691564;28;1044;-81
2021/12/29 01:40:37;;;;;;;;;;;20.90;43.20;;;;;;691182;28;1332;-85
2021/12/29 01:40:57;;;;;;;;;;;20.90;43.20;;;;;;690317;28;1068;-81
2021/12/29 01:41:18;;;;;;;;;;;20.90;43.30;;;;;;692731;28;1271;-82
2021/12/29 01:41:39;;;;;;;;;;;20.90;43.50;;;;;;692801;28;1136;-81
2021/12/29 01:42:00;;;;;;;;;;;20.90;43.30;;;;;;692563;28;1168;-86
2021/12/29 01:42:20;;;;;;;;;;;20.90;43.20;;;;;;692979;28;1477;-82
2021/12/29 01:42:41;;;;;;;;;;;20.90;43.20;;;;;;692395;28;803;-82
2021/12/29 01:43:05;;;;;;;;;;;20.90;43.30;;;;;;692585;28;1064;-82
2021/12/29 01:43:26;;;;;;;;;;;20.90;43.10;;;;;;690500;28;1312;-80
2021/12/29 01:43:46;;;;;;;;;;;20.90;43.10;;;;;;690569;28;1197;-81
2021/12/29 01:44:08;;;;;;;;;;;20.90;43.20;;;;;;689802;28;1053;-81
2021/12/29 01:44:29;;;;;;;;;;;20.90;43.30;;;;;;689747;28;1536;-81
2021/12/29 01:44:49;;;;;;;;;;;20.90;43.40;;;;;;690552;28;1323;-81
2021/12/29 01:45:11;;;;;;;;;;;20.90;43.10;;;;;;687723;28;1526;-81
2021/12/29 01:45:31;;;;;;;;;;;20.90;43.10;;;;;;688161;28;1375;-83
2021/12/29 01:45:52;;;;;;;;;;;20.90;43.30;;;;;;690044;28;791;-82
2021/12/29 01:46:13;;;;;;;;;;;20.90;43.20;;;;;;690698;28;910;-82
2021/12/29 01:46:33;;;;;;;;;;;20.90;43.30;;;;;;687808;28;1270;-80
2021/12/29 01:46:55;;;;;;;;;;;20.90;43.50;;;;;;687811;28;1376;-89
2021/12/29 01:47:26;;;;;;;;;;;20.90;43.50;;;;;;688149;28;1316;-79
2021/12/29 01:47:46;;;;;;;;;;;20.90;43.30;;;;;;687801;28;1258;-81
2021/12/29 01:48:07;;;;;;;;;;;20.90;43.20;;;;;;688015;28;1416;-81
2021/12/29 01:48:27;;;;;;;;;;;20.90;43.20;;;;;;690515;28;1342;-82
2021/12/29 01:48:48;;;;;;;;;;;20.90;43.20;;;;;;691663;28;966;-80
2021/12/29 01:49:09;;;;;;;;;;;20.90;43.10;;;;;;691234;28;1290;-81
2021/12/29 01:49:30;;;;;;;;;;;20.90;43.10;;;;;;690746;28;1220;-85
2021/12/29 01:49:51;;;;;;;;;;;20.90;43.10;;;;;;688702;28;1220;-88
2021/12/29 01:50:13;;;;;;;;;;;20.90;43.10;;;;;;689153;28;1183;-84
2021/12/29 01:50:35;;;;;;;;;;;20.90;43.10;;;;;;688399;28;1338;-81
2021/12/29 01:50:56;;;;;;;;;;;20.90;43.10;;;;;;689322;28;835;-86
2021/12/29 01:51:19;;;;;;;;;;;20.90;43.30;;;;;;691755;28;780;-89
2021/12/29 01:51:49;;;;;;;;;;;20.80;43.30;;;;;;692117;28;835;-89
2021/12/29 01:52:12;;;;;;;;;;;20.90;43.20;;;;;;692031;28;874;-89
2021/12/29 01:52:37;;;;;;;;;;;20.90;43.20;;;;;;687898;28;1216;-84
2021/12/29 01:53:03;;;;;;;;;;;20.90;43.30;;;;;;688417;28;819;-84
2021/12/29 01:53:27;;;;;;;;;;;20.80;43.10;;;;;;691446;28;922;-87
2021/12/29 01:54:01;;;;;;;;;;;20.90;43.20;;;;;;691527;28;827;-84
2021/12/29 01:54:25;;;;;;;;;;;20.90;43.30;;;;;;691206;28;831;-88
2021/12/29 01:54:45;;;;;;;;;;;20.90;43.30;;;;;;691459;28;954;-87
2021/12/29 01:55:08;;;;;;;;;;;20.90;43.40;;;;;;691452;28;1076;-88
2021/12/29 01:55:30;;;;;;;;;;;20.80;43.30;;;;;;691523;28;1056;-85
2021/12/29 01:55:51;;;;;;;;;;;20.90;43.40;;;;;;691159;28;871;-86
2021/12/29 01:56:12;;;;;;;;;;;20.90;43.30;;;;;;693841;28;1045;-87
2021/12/29 01:56:32;;;;;;;;;;;20.90;43.30;;;;;;693912;28;1116;-84
2021/12/29 01:56:56;;;;;;;;;;;20.80;43.30;;;;;;694034;28;755;-89
2021/12/29 01:57:17;;;;;;;;;;;20.90;43.30;;;;;;693700;28;1096;-85
2021/12/29 01:57:38;;;;;;;;;;;20.80;43.30;;;;;;692898;28;1493;-90
2021/12/29 01:58:00;;;;;;;;;;;20.80;43.30;;;;;;692039;28;855;-89
2021/12/29 01:58:21;;;;;;;;;;;20.90;43.40;;;;;;690164;28;887;-87
2021/12/29 01:58:42;;;;;;;;;;;20.90;43.50;;;;;;690611;28;803;-84
2021/12/29 01:59:02;;;;;;;;;;;20.80;43.50;;;;;;686364;28;1196;-91
2021/12/29 01:59:25;;;;;;;;;;;20.80;43.60;;;;;;686497;28;1902;-90
2021/12/29 01:59:46;;;;;;;;;;;20.80;43.30;;;;;;685960;28;1463;-85
2021/12/29 02:00:08;;;;;;;;;;;20.80;43.40;;;;;;685971;28;815;-88
2021/12/29 02:00:31;;;;;;;;;;;20.80;43.40;;;;;;686021;28;1395;-91
2021/12/29 02:00:52;;;;;;;;;;;20.80;43.40;;;;;;687194;28;879;-90
2021/12/29 02:01:13;;;;;;;;;;;20.80;43.30;;;;;;688777;28;1397;-92
2021/12/29 02:01:34;;;;;;;;;;;20.90;43.40;;;;;;688748;28;1124;-90
2021/12/29 02:01:54;;;;;;;;;;;20.80;43.30;;;;;;688902;28;945;-91
2021/12/29 02:02:15;;;;;;;;;;;20.80;43.30;;;;;;686060;28;1307;-90
2021/12/29 02:02:36;;;;;;;;;;;20.80;43.30;;;;;;686157;28;1053;-88
2021/12/29 02:02:56;;;;;;;;;;;20.80;43.30;;;;;;686340;28;1205;-89
2021/12/29 02:03:17;;;;;;;;;;;20.80;43.40;;;;;;686738;28;894;-87
2021/12/29 02:03:37;;;;;;;;;;;20.80;43.40;;;;;;686839;28;788;-87
2021/12/29 02:04:00;;;;;;;;;;;20.90;43.60;;;;;;684333;28;1751;-88
2021/12/29 02:04:20;;;;;;;;;;;20.80;43.40;;;;;;684219;28;1251;-86
2021/12/29 02:04:42;;;;;;;;;;;20.80;43.40;;;;;;685302;28;954;-87
2021/12/29 02:05:02;;;;;;;;;;;20.80;43.40;;;;;;686812;28;1354;-89
2021/12/29 02:05:23;;;;;;;;;;;20.80;43.40;;;;;;687086;28;859;-88
2021/12/29 02:05:44;;;;;;;;;;;20.80;43.40;;;;;;688850;28;899;-86
2021/12/29 02:06:05;;;;;;;;;;;20.80;43.50;;;;;;689505;28;1221;-86
2021/12/29 02:06:25;;;;;;;;;;;20.80;43.40;;;;;;689013;28;910;-87
2021/12/29 02:06:46;;;;;;;;;;;20.80;43.40;;;;;;687837;28;1313;-90
2021/12/29 02:07:07;;;;;;;;;;;20.80;43.50;;;;;;684836;28;956;-89
2021/12/29 02:07:28;;;;;;;;;;;20.80;43.70;;;;;;685674;29;1096;-84
2021/12/29 02:07:49;;;;;;;;;;;20.80;43.40;;;;;;685987;28;863;-85
2021/12/29 02:08:10;;;;;;;;;;;20.80;43.50;;;;;;685339;28;1511;-83
2021/12/29 02:08:32;;;;;;;;;;;20.80;43.40;;;;;;688191;28;1405;-90
2021/12/29 02:08:55;;;;;;;;;;;20.80;43.70;;;;;;688737;28;907;-86
2021/12/29 02:09:16;;;;;;;;;;;20.80;43.60;;;;;;690372;28;799;-88